Arnold, Missouri
Current Conditions -  °F | °C
As of 5:53 PM on Tuesday 25 Nov 2014 (Local Time) from KCPS Reporting Station
Clear Clear  
Wind Chill: 33°   Ceiling: Unl
Heat Index: 33°   Visibility: 10mi
Dew Point: 24°   Wind: 0mph
Humidity: 70%   Direction: NA
Pressure: 30.18"   Gusts: NA
Location:  38.42°N, 90.37°W
Report Text: KCPS 252353Z 00000KT 10SM CLR 01/M04 A3018 RMK AO2 SLP224 T00061044 10056 20006 53009
Loading
Personal Weather Stations






























Interactive Weather Map New forecast layout! Learn more

10-Day Weather Forecast

Advertisements
Track Severe Weather on mobile